Jackson Hole Airport Jackson US
ICAO: KJAC
IATA: JAC
Category: Medium
Scheduled Services: Yes

Elevation: 6451 ft
TransAlt. 18000 ft.

Airport Communications:
ATIS:120.625
AWOS 3:135.175
SALT LAKE CNTR:133.25
CTAF:118.075
GND:124.55
CASPER RDO:122.05
TWR:118.075
UNICOM:122.95

KJAC Zoom In..

Runways:

(A) RW 01 length 6300 ft width 150 ft
---- / hdg 7

(B) RW 19 length 6300 ft width 150 ft
ILS 109.10 / hdg 187

Location; KJAC
Day. 21 / Time. 14.56 Zulu
* Altimeter: 30.08
* Temperature: 11° c. 51.8°f.
* Wind from: 000° Speed 00 kn.
Dewpoint: 05° c.
Visibility: 10 Statute Miles.
Clouds: Clear (automated report).

KJAC 211456Z 00000KT 10SM CLR 11/05 A3008 RMK AO2 SLP155 T01060050 51004


Wind - Calm.

 
 
jpsmedia.com for Web Design SOUNDCLOUD worldairports.se 2018   terms of use